Time;durP1;ratioP1;P1;durP2;ratioP2;P2;SDS_P1;SDS_P2;PMS_P1;PMS_P2;Temp;Humidity;BMP_temperature;BMP_pressure;BME280_temperature;BME280_humidity;BME280_pressure;Samples;Min_cycle;Max_cycle;Signal;HPM_P1;HPM_P2
2024/01/19 00:01:13;;;;;;;5.28;2.95;;;;;;;;;;4936087;29;20016;-69
2024/01/19 00:03:39;;;;;;;4.57;2.92;;;;;;;;;;4936087;29;20031;-68
2024/01/19 00:06:05;;;;;;;4.80;2.67;;;;;;;;;;4936079;29;20062;-68
2024/01/19 00:08:30;;;;;;;3.80;2.83;;;;;;;;;;4936423;29;20055;-71
2024/01/19 00:10:56;;;;;;;5.28;3.00;;;;;;;;;;4936188;29;20388;-70
2024/01/19 00:13:21;;;;;;;3.53;2.67;;;;;;;;;;4936434;29;20042;-70
2024/01/19 00:15:47;;;;;;;3.42;2.63;;;;;;;;;;4936042;29;20098;-71
2024/01/19 00:18:12;;;;;;;5.25;2.78;;;;;;;;;;4936024;29;20083;-72
2024/01/19 00:20:38;;;;;;;4.60;2.60;;;;;;;;;;4936043;29;20397;-70
2024/01/19 00:23:04;;;;;;;4.93;2.85;;;;;;;;;;4935943;29;20082;-70
2024/01/19 00:25:29;;;;;;;3.38;2.55;;;;;;;;;;4935948;29;20024;-71
2024/01/19 00:27:55;;;;;;;3.53;2.60;;;;;;;;;;4918837;29;20056;-68
2024/01/19 00:30:21;;;;;;;3.28;2.60;;;;;;;;;;4936114;29;20031;-70
2024/01/19 00:32:46;;;;;;;4.45;2.63;;;;;;;;;;4935816;29;20031;-68
2024/01/19 00:35:12;;;;;;;2.63;2.42;;;;;;;;;;4935990;29;20039;-69
2024/01/19 00:37:37;;;;;;;3.20;2.33;;;;;;;;;;4935399;29;20071;-69
2024/01/19 00:40:11;;;;;;;3.60;2.50;;;;;;;;;;4935871;29;20128;-69
2024/01/19 00:42:40;;;;;;;5.32;3.20;;;;;;;;;;4935621;29;20047;-68
2024/01/19 00:45:07;;;;;;;4.35;2.80;;;;;;;;;;4935487;29;20054;-71
2024/01/19 00:47:34;;;;;;;4.82;2.70;;;;;;;;;;4935603;29;20039;-70
2024/01/19 00:50:00;;;;;;;4.53;2.53;;;;;;;;;;4935547;29;20544;-68
2024/01/19 00:52:25;;;;;;;4.32;2.40;;;;;;;;;;4935524;29;20120;-70
2024/01/19 00:54:51;;;;;;;4.53;2.70;;;;;;;;;;4935473;29;20027;-69
2024/01/19 00:57:16;;;;;;;3.22;2.78;;;;;;;;;;4935512;29;20031;-69
2024/01/19 00:59:42;;;;;;;3.67;2.80;;;;;;;;;;4935485;29;20055;-69
2024/01/19 01:02:07;;;;;;;3.42;2.70;;;;;;;;;;4935632;29;20038;-72
2024/01/19 01:04:33;;;;;;;3.63;2.75;;;;;;;;;;4935409;29;20031;-72
2024/01/19 01:06:58;;;;;;;4.25;2.78;;;;;;;;;;4935579;29;20032;-71
2024/01/19 01:09:24;;;;;;;3.28;2.65;;;;;;;;;;4935306;29;20075;-72
2024/01/19 01:11:49;;;;;;;4.90;2.90;;;;;;;;;;4935379;29;20098;-71
2024/01/19 01:14:15;;;;;;;4.55;2.90;;;;;;;;;;4935227;29;20435;-71
2024/01/19 01:16:41;;;;;;;4.63;3.15;;;;;;;;;;4935241;29;20024;-71
2024/01/19 01:19:06;;;;;;;3.13;2.38;;;;;;;;;;4935201;29;20044;-71
2024/01/19 01:21:32;;;;;;;4.88;2.72;;;;;;;;;;4935198;29;20098;-70
2024/01/19 01:23:58;;;;;;;3.95;2.60;;;;;;;;;;4935260;29;20473;-69
2024/01/19 01:26:23;;;;;;;4.40;2.60;;;;;;;;;;4935166;29;20032;-72
2024/01/19 01:28:49;;;;;;;3.17;2.42;;;;;;;;;;4935398;29;20024;-70
2024/01/19 01:31:14;;;;;;;3.40;2.70;;;;;;;;;;4935099;29;20540;-71
2024/01/19 01:33:40;;;;;;;3.80;2.45;;;;;;;;;;4934985;29;20035;-71
2024/01/19 01:36:05;;;;;;;4.90;2.53;;;;;;;;;;4935334;29;20024;-71
2024/01/19 01:38:31;;;;;;;2.85;2.38;;;;;;;;;;4935035;29;20060;-67
2024/01/19 01:40:56;;;;;;;3.63;2.63;;;;;;;;;;4935077;29;20036;-67
2024/01/19 01:43:24;;;;;;;4.75;2.80;;;;;;;;;;4935199;29;20489;-67
2024/01/19 01:45:50;;;;;;;3.42;2.50;;;;;;;;;;4935331;29;20031;-70
2024/01/19 01:48:16;;;;;;;4.85;2.40;;;;;;;;;;4934907;29;20472;-69
2024/01/19 01:50:42;;;;;;;4.10;2.83;;;;;;;;;;4938312;29;20448;-69
2024/01/19 01:53:07;;;;;;;3.78;2.50;;;;;;;;;;4938642;29;20067;-71
2024/01/19 01:55:33;;;;;;;4.15;2.92;;;;;;;;;;4938714;29;20630;-71
2024/01/19 01:57:58;;;;;;;4.32;2.67;;;;;;;;;;4938537;29;20115;-72
2024/01/19 02:00:25;;;;;;;3.60;2.20;;;;;;;;;;4936415;29;20031;-70
2024/01/19 02:02:51;;;;;;;3.30;2.40;;;;;;;;;;4937661;29;20168;-70
2024/01/19 02:05:17;;;;;;;3.70;2.58;;;;;;;;;;4937312;29;20026;-71
2024/01/19 02:07:42;;;;;;;3.40;2.50;;;;;;;;;;4937112;29;20028;-69
2024/01/19 02:10:08;;;;;;;3.45;2.30;;;;;;;;;;4936493;29;20123;-71
2024/01/19 02:12:34;;;;;;;2.80;2.30;;;;;;;;;;4937530;29;20066;-70
2024/01/19 02:14:59;;;;;;;3.63;2.65;;;;;;;;;;4937445;29;20034;-70
2024/01/19 02:17:26;;;;;;;2.80;2.50;;;;;;;;;;4937059;29;20392;-69
2024/01/19 02:19:52;;;;;;;3.95;2.38;;;;;;;;;;4937196;29;20027;-71
2024/01/19 02:22:19;;;;;;;2.97;2.30;;;;;;;;;;4935867;29;20424;-71
2024/01/19 02:24:44;;;;;;;5.65;2.78;;;;;;;;;;4937248;29;20027;-70
2024/01/19 02:27:10;;;;;;;3.53;2.30;;;;;;;;;;4936890;29;20505;-71
2024/01/19 02:29:36;;;;;;;3.88;2.58;;;;;;;;;;4936819;29;20028;-71
2024/01/19 02:32:01;;;;;;;2.95;2.28;;;;;;;;;;4936808;29;20020;-70
2024/01/19 02:34:27;;;;;;;3.13;2.45;;;;;;;;;;4935978;29;20063;-71
2024/01/19 02:36:54;;;;;;;4.00;2.65;;;;;;;;;;4936732;29;20110;-68
2024/01/19 02:39:19;;;;;;;4.10;2.55;;;;;;;;;;4936752;29;20026;-71
2024/01/19 02:41:45;;;;;;;3.45;2.53;;;;;;;;;;4935405;29;20023;-68
2024/01/19 02:44:11;;;;;;;3.47;2.50;;;;;;;;;;4936812;29;20047;-70
2024/01/19 02:46:38;;;;;;;3.45;2.20;;;;;;;;;;4936778;29;20027;-70
2024/01/19 02:49:04;;;;;;;3.28;2.55;;;;;;;;;;4937131;29;20028;-71
2024/01/19 02:51:30;;;;;;;2.55;2.20;;;;;;;;;;4935893;29;20037;-69
2024/01/19 02:53:55;;;;;;;3.90;2.30;;;;;;;;;;4937356;29;20110;-67
2024/01/19 02:56:21;;;;;;;2.40;2.03;;;;;;;;;;4920223;29;20671;-70
2024/01/19 02:58:47;;;;;;;3.08;2.40;;;;;;;;;;4937181;29;20080;-71
2024/01/19 03:01:13;;;;;;;3.08;2.42;;;;;;;;;;4936691;29;20055;-71
2024/01/19 03:03:38;;;;;;;2.67;2.22;;;;;;;;;;4937493;29;20024;-71
2024/01/19 03:06:04;;;;;;;3.15;2.22;;;;;;;;;;4937409;29;20441;-71
2024/01/19 03:08:30;;;;;;;5.50;2.10;;;;;;;;;;4937447;29;20387;-71
2024/01/19 03:10:55;;;;;;;4.07;2.22;;;;;;;;;;4937593;29;20513;-71
2024/01/19 03:13:21;;;;;;;3.50;2.50;;;;;;;;;;4937197;29;20032;-71
2024/01/19 03:15:47;;;;;;;3.20;2.42;;;;;;;;;;4937460;29;20082;-71
2024/01/19 03:18:12;;;;;;;2.30;2.08;;;;;;;;;;4937114;29;20497;-71
2024/01/19 03:20:38;;;;;;;3.38;2.10;;;;;;;;;;4937140;29;20036;-71
2024/01/19 03:23:03;;;;;;;2.50;2.30;;;;;;;;;;4937132;29;20532;-75
2024/01/19 03:25:29;;;;;;;2.70;2.22;;;;;;;;;;4937062;29;20111;-74
2024/01/19 03:27:54;;;;;;;2.40;2.20;;;;;;;;;;4937056;29;20020;-75
2024/01/19 03:30:20;;;;;;;2.50;2.25;;;;;;;;;;4936879;29;20035;-67
2024/01/19 03:32:46;;;;;;;2.10;1.88;;;;;;;;;;4937008;29;20028;-74
2024/01/19 03:35:11;;;;;;;3.25;2.13;;;;;;;;;;4936938;29;20480;-74
2024/01/19 03:37:37;;;;;;;3.05;1.80;;;;;;;;;;4936836;29;20118;-74
2024/01/19 03:40:06;;;;;;;2.53;1.85;;;;;;;;;;4936813;29;20027;-67
2024/01/19 03:42:31;;;;;;;2.58;2.33;;;;;;;;;;4936802;29;20495;-73
2024/01/19 03:44:57;;;;;;;2.97;2.38;;;;;;;;;;4936669;29;20083;-73
2024/01/19 03:47:22;;;;;;;2.13;1.90;;;;;;;;;;4936649;29;20536;-73
2024/01/19 03:49:48;;;;;;;2.97;2.22;;;;;;;;;;4936528;29;20043;-73
2024/01/19 03:52:13;;;;;;;2.47;2.17;;;;;;;;;;4936584;29;20028;-66
2024/01/19 03:54:39;;;;;;;3.00;2.20;;;;;;;;;;4936450;29;20075;-74
2024/01/19 03:57:06;;;;;;;2.60;2.00;;;;;;;;;;4936417;29;20032;-73
2024/01/19 03:59:32;;;;;;;2.42;2.22;;;;;;;;;;4936688;29;20437;-74
2024/01/19 04:01:58;;;;;;;2.85;2.13;;;;;;;;;;4936381;29;20031;-68
2024/01/19 04:04:24;;;;;;;4.13;2.20;;;;;;;;;;4936291;29;20028;-73
2024/01/19 04:06:52;;;;;;;2.28;2.08;;;;;;;;;;4936517;29;20110;-74
2024/01/19 04:09:18;;;;;;;3.22;2.25;;;;;;;;;;4936183;29;20539;-71
2024/01/19 04:11:44;;;;;;;2.25;1.98;;;;;;;;;;4936280;29;20075;-74
2024/01/19 04:14:10;;;;;;;2.10;1.90;;;;;;;;;;4935494;29;20062;-74
2024/01/19 04:16:36;;;;;;;2.47;2.08;;;;;;;;;;4936400;29;20031;-72
2024/01/19 04:19:03;;;;;;;4.53;2.40;;;;;;;;;;4935910;29;20036;-71
2024/01/19 04:21:30;;;;;;;2.30;2.10;;;;;;;;;;4935937;29;20035;-72
2024/01/19 04:23:56;;;;;;;3.80;2.10;;;;;;;;;;4936286;29;20027;-72
2024/01/19 04:26:21;;;;;;;2.60;2.33;;;;;;;;;;4935854;29;20472;-72
2024/01/19 04:28:47;;;;;;;2.17;1.90;;;;;;;;;;4935891;29;20047;-72
2024/01/19 04:31:12;;;;;;;2.35;2.03;;;;;;;;;;4936188;29;20039;-72
2024/01/19 04:33:38;;;;;;;2.38;1.90;;;;;;;;;;4935794;29;20112;-68
2024/01/19 04:36:04;;;;;;;2.10;1.90;;;;;;;;;;4935837;29;20047;-72
2024/01/19 04:38:29;;;;;;;2.25;2.05;;;;;;;;;;4935937;29;20039;-73
2024/01/19 04:40:55;;;;;;;2.40;2.10;;;;;;;;;;4935689;29;20034;-73
2024/01/19 04:43:20;;;;;;;2.38;2.00;;;;;;;;;;4935476;29;20079;-73
2024/01/19 04:45:46;;;;;;;2.20;1.90;;;;;;;;;;4935984;29;20024;-73
2024/01/19 04:48:11;;;;;;;2.20;1.88;;;;;;;;;;4935694;29;20028;-73
2024/01/19 04:50:38;;;;;;;2.50;2.13;;;;;;;;;;4935901;29;20036;-73
2024/01/19 04:53:04;;;;;;;3.15;1.98;;;;;;;;;;4935782;29;20086;-74
2024/01/19 04:55:30;;;;;;;2.30;2.10;;;;;;;;;;4935460;29;20110;-74
2024/01/19 04:57:55;;;;;;;2.60;1.85;;;;;;;;;;4935682;29;20060;-74
2024/01/19 05:00:22;;;;;;;2.33;2.10;;;;;;;;;;4935531;29;20091;-74
2024/01/19 05:02:48;;;;;;;2.30;2.00;;;;;;;;;;4935465;29;20028;-74
2024/01/19 05:05:14;;;;;;;2.25;1.92;;;;;;;;;;4935289;29;20099;-74
2024/01/19 05:07:40;;;;;;;1.70;1.60;;;;;;;;;;4935346;29;20052;-73
2024/01/19 05:10:06;;;;;;;2.78;2.00;;;;;;;;;;4935563;29;20051;-72
2024/01/19 05:12:32;;;;;;;2.22;2.03;;;;;;;;;;4935198;29;20020;-72
2024/01/19 05:14:57;;;;;;;2.58;2.10;;;;;;;;;;4935482;29;20035;-72
2024/01/19 05:17:23;;;;;;;2.10;1.90;;;;;;;;;;4935276;29;20505;-72
2024/01/19 05:19:48;;;;;;;2.20;2.00;;;;;;;;;;4935190;29;20051;-72
2024/01/19 05:22:14;;;;;;;3.22;2.08;;;;;;;;;;4935326;29;20058;-71
2024/01/19 05:24:43;;;;;;;2.40;1.88;;;;;;;;;;4936812;29;20039;-71
2024/01/19 05:27:09;;;;;;;2.47;2.28;;;;;;;;;;4922171;29;20481;-72
2024/01/19 05:29:35;;;;;;;2.08;1.88;;;;;;;;;;4939132;29;20075;-72
2024/01/19 05:32:01;;;;;;;2.60;2.20;;;;;;;;;;4939072;29;20031;-71
2024/01/19 05:34:27;;;;;;;2.60;2.20;;;;;;;;;;4939057;29;20465;-71
2024/01/19 05:36:53;;;;;;;2.53;2.20;;;;;;;;;;4939063;29;20042;-72
2024/01/19 05:39:18;;;;;;;1.85;1.70;;;;;;;;;;4938990;29;20103;-70
2024/01/19 05:41:44;;;;;;;2.35;1.95;;;;;;;;;;4939190;29;20047;-70
2024/01/19 05:44:09;;;;;;;2.97;2.15;;;;;;;;;;4938691;29;20047;-72
2024/01/19 05:46:35;;;;;;;3.17;2.35;;;;;;;;;;4939101;29;20032;-70
2024/01/19 05:49:00;;;;;;;2.30;2.00;;;;;;;;;;4939108;29;20031;-70
2024/01/19 05:51:26;;;;;;;3.38;2.35;;;;;;;;;;4938687;29;20023;-69
2024/01/19 05:53:52;;;;;;;3.03;2.05;;;;;;;;;;4938995;29;20090;-67
2024/01/19 05:56:17;;;;;;;2.60;2.10;;;;;;;;;;4938962;29;20385;-68
2024/01/19 05:58:44;;;;;;;2.83;2.08;;;;;;;;;;4921441;29;20031;-70
2024/01/19 06:01:09;;;;;;;2.10;1.90;;;;;;;;;;4938835;29;20090;-70
2024/01/19 06:03:35;;;;;;;2.05;1.85;;;;;;;;;;4938560;29;20473;-70
2024/01/19 06:06:02;;;;;;;2.47;2.17;;;;;;;;;;4938721;29;20020;-70
2024/01/19 06:08:28;;;;;;;1.98;1.77;;;;;;;;;;4938757;29;20036;-70
2024/01/19 06:10:54;;;;;;;2.20;2.00;;;;;;;;;;4938422;29;20053;-70
2024/01/19 06:13:20;;;;;;;2.40;2.03;;;;;;;;;;4938345;29;20477;-70
2024/01/19 06:15:45;;;;;;;2.30;2.00;;;;;;;;;;4938330;29;20023;-70
2024/01/19 06:18:11;;;;;;;2.38;2.00;;;;;;;;;;4921055;29;20083;-70
2024/01/19 06:20:41;;;;;;;3.03;1.80;;;;;;;;;;4938277;29;20047;-70
2024/01/19 06:23:07;;;;;;;2.20;1.80;;;;;;;;;;4938255;29;20019;-69
2024/01/19 06:25:33;;;;;;;2.20;2.00;;;;;;;;;;4938350;29;20051;-68
2024/01/19 06:27:59;;;;;;;2.05;1.85;;;;;;;;;;4938385;29;20476;-70
2024/01/19 06:30:24;;;;;;;2.72;2.08;;;;;;;;;;4938058;29;20365;-69
2024/01/19 06:32:50;;;;;;;2.22;2.00;;;;;;;;;;4938313;29;20051;-71
2024/01/19 06:35:15;;;;;;;2.13;1.92;;;;;;;;;;4937814;29;20047;-73
2024/01/19 06:37:41;;;;;;;2.22;1.90;;;;;;;;;;4937442;29;20035;-71
2024/01/19 06:40:10;;;;;;;2.17;1.90;;;;;;;;;;4921326;29;20485;-72
2024/01/19 06:42:37;;;;;;;2.20;2.00;;;;;;;;;;4920836;29;20119;-72
2024/01/19 06:45:03;;;;;;;2.05;1.88;;;;;;;;;;4937621;29;20509;-72
2024/01/19 06:47:29;;;;;;;2.33;1.77;;;;;;;;;;4937810;29;20063;-71
2024/01/19 06:49:54;;;;;;;2.00;1.80;;;;;;;;;;4937734;29;20476;-71
2024/01/19 06:52:20;;;;;;;1.65;1.55;;;;;;;;;;4937695;29;20035;-71
2024/01/19 06:54:45;;;;;;;1.88;1.77;;;;;;;;;;4937922;29;20401;-71
2024/01/19 06:57:11;;;;;;;2.63;2.00;;;;;;;;;;4937535;29;20028;-71
2024/01/19 06:59:36;;;;;;;2.65;1.98;;;;;;;;;;4937595;29;20031;-71
2024/01/19 07:02:02;;;;;;;1.63;1.52;;;;;;;;;;4937516;29;20082;-71
2024/01/19 07:04:27;;;;;;;1.80;1.70;;;;;;;;;;4937344;29;20059;-71
2024/01/19 07:06:53;;;;;;;2.08;1.88;;;;;;;;;;4937388;29;20074;-71
2024/01/19 07:09:20;;;;;;;1.85;1.75;;;;;;;;;;4937369;29;20107;-69
2024/01/19 07:11:45;;;;;;;1.90;1.65;;;;;;;;;;4937273;29;20039;-70
2024/01/19 07:14:11;;;;;;;1.85;1.75;;;;;;;;;;4937398;29;20024;-69
2024/01/19 07:16:43;;;;;;;1.73;1.63;;;;;;;;;;4937244;29;20015;-69
2024/01/19 07:19:10;;;;;;;2.03;1.83;;;;;;;;;;4937515;29;20027;-69
2024/01/19 07:21:40;;;;;;;2.20;2.00;;;;;;;;;;4937412;29;20024;-70
2024/01/19 07:24:07;;;;;;;2.47;1.80;;;;;;;;;;4937110;29;20385;-70
2024/01/19 07:26:33;;;;;;;2.42;1.90;;;;;;;;;;4937075;29;20027;-69
2024/01/19 07:28:59;;;;;;;2.10;1.90;;;;;;;;;;4937018;29;20020;-69
2024/01/19 07:31:25;;;;;;;3.28;1.70;;;;;;;;;;4937228;29;20067;-70
2024/01/19 07:33:51;;;;;;;1.80;1.70;;;;;;;;;;4936991;29;20429;-69
2024/01/19 07:36:17;;;;;;;2.00;1.80;;;;;;;;;;4936872;29;20020;-70
2024/01/19 07:38:42;;;;;;;2.03;1.80;;;;;;;;;;4936722;29;20091;-70
2024/01/19 07:41:08;;;;;;;2.67;1.77;;;;;;;;;;4937075;29;20059;-69
2024/01/19 07:43:33;;;;;;;1.88;1.77;;;;;;;;;;4936725;29;20044;-70
2024/01/19 07:45:59;;;;;;;2.10;1.90;;;;;;;;;;4936950;29;20512;-70
2024/01/19 07:48:25;;;;;;;1.92;1.67;;;;;;;;;;4936416;29;20458;-70
2024/01/19 07:50:51;;;;;;;2.17;1.73;;;;;;;;;;4936568;29;20030;-69
2024/01/19 07:53:16;;;;;;;2.05;1.77;;;;;;;;;;4936809;29;20038;-69
2024/01/19 07:55:41;;;;;;;2.22;1.92;;;;;;;;;;4936416;29;20024;-70
2024/01/19 07:58:07;;;;;;;3.35;2.05;;;;;;;;;;4936395;29;20078;-69
2024/01/19 08:00:33;;;;;;;2.30;1.65;;;;;;;;;;4936501;29;20388;-69
2024/01/19 08:02:59;;;;;;;2.15;1.92;;;;;;;;;;4936383;29;20030;-69
2024/01/19 08:05:25;;;;;;;1.92;1.65;;;;;;;;;;4936300;29;20031;-69
2024/01/19 08:07:52;;;;;;;1.55;1.45;;;;;;;;;;4936317;29;20032;-70
2024/01/19 08:10:18;;;;;;;1.98;1.80;;;;;;;;;;4936460;29;20527;-69
2024/01/19 08:12:44;;;;;;;2.13;1.92;;;;;;;;;;4936157;29;20023;-69
2024/01/19 08:15:10;;;;;;;1.95;1.80;;;;;;;;;;4919154;29;20035;-70
2024/01/19 08:17:35;;;;;;;2.25;2.00;;;;;;;;;;4936101;29;20028;-70
2024/01/19 08:20:01;;;;;;;1.92;1.83;;;;;;;;;;4936196;29;20028;-71
2024/01/19 08:22:27;;;;;;;2.10;1.90;;;;;;;;;;4935973;29;20031;-71
2024/01/19 08:24:53;;;;;;;2.05;1.85;;;;;;;;;;4936284;29;20024;-72
2024/01/19 08:27:18;;;;;;;1.80;1.70;;;;;;;;;;4935985;29;20436;-70
2024/01/19 08:29:47;;;;;;;1.80;1.70;;;;;;;;;;4936162;29;20071;-72
2024/01/19 08:32:13;;;;;;;2.03;1.70;;;;;;;;;;4935954;29;20024;-73
2024/01/19 08:34:38;;;;;;;2.60;1.80;;;;;;;;;;4935810;29;20380;-71
2024/01/19 08:37:04;;;;;;;1.60;1.50;;;;;;;;;;4935716;29;20091;-72
2024/01/19 08:39:29;;;;;;;3.25;1.70;;;;;;;;;;4936046;29;20031;-72
2024/01/19 08:41:55;;;;;;;2.15;1.95;;;;;;;;;;4935983;29;20023;-71
2024/01/19 08:44:21;;;;;;;1.73;1.63;;;;;;;;;;4935496;29;20492;-71
2024/01/19 08:46:47;;;;;;;1.77;1.60;;;;;;;;;;4936024;29;20114;-72
2024/01/19 08:49:13;;;;;;;1.98;1.77;;;;;;;;;;4935846;29;20435;-71
2024/01/19 08:51:39;;;;;;;2.08;1.80;;;;;;;;;;4935610;29;20385;-71
2024/01/19 08:54:05;;;;;;;2.22;1.98;;;;;;;;;;4935863;29;20111;-72
2024/01/19 08:56:31;;;;;;;2.00;1.80;;;;;;;;;;4918456;29;20027;-71
2024/01/19 08:58:57;;;;;;;2.22;1.80;;;;;;;;;;4935153;29;20035;-72
2024/01/19 09:01:23;;;;;;;2.03;1.73;;;;;;;;;;4935716;29;20385;-72
2024/01/19 09:03:49;;;;;;;1.70;1.60;;;;;;;;;;4935360;29;20036;-71
2024/01/19 09:06:15;;;;;;;2.05;1.70;;;;;;;;;;4918499;29;20472;-72
2024/01/19 09:08:42;;;;;;;1.77;1.67;;;;;;;;;;4935623;29;20059;-72
2024/01/19 09:11:11;;;;;;;2.78;1.75;;;;;;;;;;4935297;29;20023;-72
2024/01/19 09:13:40;;;;;;;1.93;1.77;;;;;;;;;;4935415;29;20144;-71
2024/01/19 09:16:09;;;;;;;1.85;1.70;;;;;;;;;;4935223;29;20160;-71
2024/01/19 09:18:36;;;;;;;2.20;2.00;;;;;;;;;;4935153;29;20028;-71
2024/01/19 09:21:02;;;;;;;2.20;1.70;;;;;;;;;;4935179;29;20030;-71
2024/01/19 09:23:27;;;;;;;1.67;1.58;;;;;;;;;;4935524;29;20027;-73
2024/01/19 09:25:53;;;;;;;1.83;1.73;;;;;;;;;;4935555;29;20031;-74
2024/01/19 09:28:18;;;;;;;1.70;1.60;;;;;;;;;;4935155;29;20027;-73
2024/01/19 09:30:44;;;;;;;1.90;1.70;;;;;;;;;;4935165;29;20031;-71
2024/01/19 09:33:10;;;;;;;1.60;1.50;;;;;;;;;;4935141;29;20082;-71
2024/01/19 09:35:35;;;;;;;2.00;1.80;;;;;;;;;;4935140;29;20031;-72
2024/01/19 09:38:01;;;;;;;1.70;1.60;;;;;;;;;;4935060;29;20043;-72
2024/01/19 09:40:26;;;;;;;2.25;1.73;;;;;;;;;;4934870;29;20039;-71
2024/01/19 09:42:55;;;;;;;1.70;1.60;;;;;;;;;;4935030;29;20032;-72
2024/01/19 09:45:26;;;;;;;2.05;1.73;;;;;;;;;;4935882;29;20076;-75
2024/01/19 09:48:00;;;;;;;2.38;1.90;;;;;;;;;;4938036;29;20028;-77
2024/01/19 09:50:35;;;;;;;1.90;1.80;;;;;;;;;;4920099;29;20054;-68
2024/01/19 09:53:11;;;;;;;1.90;1.70;;;;;;;;;;4935102;29;20151;-72
2024/01/19 09:55:37;;;;;;;2.33;1.70;;;;;;;;;;4934876;29;20030;-73
2024/01/19 09:58:03;;;;;;;1.98;1.75;;;;;;;;;;4934707;29;20028;-72
2024/01/19 10:00:28;;;;;;;1.95;1.55;;;;;;;;;;4917881;29;20027;-72
2024/01/19 10:02:54;;;;;;;1.77;1.67;;;;;;;;;;4934792;29;20019;-71
2024/01/19 10:05:21;;;;;;;2.60;1.80;;;;;;;;;;4934764;29;20020;-71
2024/01/19 10:07:49;;;;;;;1.67;1.55;;;;;;;;;;4934751;29;20024;-71
2024/01/19 10:10:15;;;;;;;1.52;1.42;;;;;;;;;;4935465;29;20051;-71
2024/01/19 10:12:41;;;;;;;1.75;1.60;;;;;;;;;;4938641;29;20030;-70
2024/01/19 10:15:14;;;;;;;1.77;1.67;;;;;;;;;;4938251;29;20551;-70
2024/01/19 10:17:44;;;;;;;1.60;1.50;;;;;;;;;;4938114;29;20068;-71
2024/01/19 10:20:12;;;;;;;2.00;1.60;;;;;;;;;;4932467;29;20024;-72
2024/01/19 10:22:39;;;;;;;1.70;1.60;;;;;;;;;;4928455;29;20030;-71
2024/01/19 10:25:10;;;;;;;1.70;1.60;;;;;;;;;;4928826;29;20024;-71
2024/01/19 10:27:51;;;;;;;1.60;1.50;;;;;;;;;;4927692;29;20406;-72
2024/01/19 10:30:25;;;;;;;1.50;1.40;;;;;;;;;;4927578;29;20051;-71
2024/01/19 10:32:52;;;;;;;1.90;1.60;;;;;;;;;;4921718;29;20442;-67
2024/01/19 10:35:18;;;;;;;1.83;1.70;;;;;;;;;;4919092;29;20024;-69
2024/01/19 10:37:44;;;;;;;1.88;1.70;;;;;;;;;;4918875;29;20096;-69
2024/01/19 10:40:14;;;;;;;2.03;1.70;;;;;;;;;;4918850;29;20028;-69
2024/01/19 10:42:40;;;;;;;;;;;;;;;;;;4919554;29;20024;-69
2024/01/19 10:45:16;;;;;;;1.70;1.60;;;;;;;;;;4918591;29;19919;-69
2024/01/19 10:47:43;;;;;;;2.15;1.48;;;;;;;;;;4918732;29;20032;-69
2024/01/19 10:50:11;;;;;;;2.15;1.92;;;;;;;;;;4918734;29;20058;-69
2024/01/19 10:52:39;;;;;;;1.42;1.33;;;;;;;;;;4918976;29;20028;-70
2024/01/19 10:55:05;;;;;;;1.70;1.55;;;;;;;;;;4901960;29;20096;-69
2024/01/19 10:57:30;;;;;;;1.55;1.45;;;;;;;;;;4918778;29;20493;-70
2024/01/19 10:59:56;;;;;;;1.70;1.60;;;;;;;;;;4918554;29;20056;-70
2024/01/19 11:02:23;;;;;;;1.60;1.50;;;;;;;;;;4918630;29;20035;-70
2024/01/19 11:04:51;;;;;;;1.73;1.63;;;;;;;;;;4901502;29;20036;-70
2024/01/19 11:07:16;;;;;;;2.53;1.80;;;;;;;;;;4918417;29;20091;-71
2024/01/19 11:09:42;;;;;;;1.70;1.60;;;;;;;;;;4918408;29;20028;-71
2024/01/19 11:12:11;;;;;;;1.63;1.52;;;;;;;;;;4918413;29;20552;-71
2024/01/19 11:14:40;;;;;;;1.77;1.65;;;;;;;;;;4918629;29;20385;-71
2024/01/19 11:17:06;;;;;;;1.77;1.40;;;;;;;;;;4918119;29;20088;-72
2024/01/19 11:19:33;;;;;;;1.55;1.42;;;;;;;;;;4918077;29;20454;-70
2024/01/19 11:22:00;;;;;;;1.85;1.60;;;;;;;;;;4933949;29;20043;-69
2024/01/19 11:24:32;;;;;;;1.73;1.60;;;;;;;;;;4910765;29;20055;-70
2024/01/19 11:27:33;;;;;;;1.58;1.48;;;;;;;;;;4927583;29;20314;-71
2024/01/19 11:30:21;;;;;;;1.60;1.50;;;;;;;;;;4927494;29;20500;-68
2024/01/19 11:32:46;;;;;;;1.80;1.70;;;;;;;;;;4928631;29;20099;-75
2024/01/19 11:35:38;;;;;;;2.03;1.63;;;;;;;;;;4931091;29;20469;-72
2024/01/19 11:38:04;;;;;;;1.70;1.60;;;;;;;;;;4935594;29;20520;-72
2024/01/19 11:40:29;;;;;;;1.95;1.83;;;;;;;;;;4934707;29;20032;-70
2024/01/19 11:42:55;;;;;;;1.60;1.50;;;;;;;;;;4935783;29;20034;-67
2024/01/19 11:45:40;;;;;;;2.28;1.70;;;;;;;;;;4933873;29;20130;-67
2024/01/19 11:48:07;;;;;;;1.98;1.42;;;;;;;;;;4934462;29;20023;-67
2024/01/19 11:50:46;;;;;;;1.88;1.60;;;;;;;;;;4935716;29;20035;-68
2024/01/19 11:53:13;;;;;;;1.70;1.60;;;;;;;;;;4935122;29;20370;-69
2024/01/19 11:55:41;;;;;;;3.38;1.60;;;;;;;;;;4936457;29;20036;-67
2024/01/19 11:58:27;;;;;;;1.85;1.70;;;;;;;;;;4936239;29;20035;-70
2024/01/19 12:00:57;;;;;;;1.70;1.60;;;;;;;;;;4936072;29;20064;-67
2024/01/19 12:03:23;;;;;;;4.13;1.50;;;;;;;;;;4936398;29;20023;-68
2024/01/19 12:05:51;;;;;;;1.77;1.67;;;;;;;;;;4936264;29;20035;-68
2024/01/19 12:08:16;;;;;;;6.57;1.58;;;;;;;;;;4936290;29;20028;-68
2024/01/19 12:10:43;;;;;;;3.33;1.92;;;;;;;;;;4931282;29;20385;-69
2024/01/19 12:13:08;;;;;;;2.40;1.88;;;;;;;;;;4927167;29;20035;-67
2024/01/19 12:15:34;;;;;;;1.60;1.50;;;;;;;;;;4931410;29;20027;-66
2024/01/19 12:18:04;;;;;;;1.98;1.60;;;;;;;;;;4931782;29;20028;-66
2024/01/19 12:20:30;;;;;;;1.50;1.40;;;;;;;;;;4929340;29;20078;-68
2024/01/19 12:22:56;;;;;;;1.70;1.58;;;;;;;;;;4925249;29;20040;-69
2024/01/19 12:25:26;;;;;;;1.95;1.60;;;;;;;;;;4927330;29;20492;-67
2024/01/19 12:28:04;;;;;;;1.95;1.60;;;;;;;;;;4930153;29;20033;-68
2024/01/19 12:30:34;;;;;;;1.90;1.65;;;;;;;;;;4929049;29;20448;-68
2024/01/19 12:33:25;;;;;;;1.60;1.50;;;;;;;;;;4931192;29;20020;-70
2024/01/19 12:36:03;;;;;;;1.60;1.50;;;;;;;;;;4929816;29;20027;-68
2024/01/19 12:38:29;;;;;;;2.03;1.60;;;;;;;;;;4931468;29;20383;-67
2024/01/19 12:40:56;;;;;;;1.55;1.45;;;;;;;;;;4930828;29;20038;-67
2024/01/19 12:43:22;;;;;;;1.50;1.40;;;;;;;;;;4930099;29;20079;-68
2024/01/19 12:45:47;;;;;;;1.83;1.73;;;;;;;;;;4931273;29;20036;-69
2024/01/19 12:48:15;;;;;;;2.03;1.70;;;;;;;;;;4924355;29;20099;-68
2024/01/19 12:50:40;;;;;;;1.90;1.60;;;;;;;;;;4916550;29;20055;-68
2024/01/19 12:53:06;;;;;;;1.50;1.40;;;;;;;;;;4916602;29;20165;-68
2024/01/19 12:55:33;;;;;;;1.73;1.63;;;;;;;;;;4916555;29;20128;-71
2024/01/19 12:57:59;;;;;;;1.98;1.60;;;;;;;;;;4916379;29;20028;-66
2024/01/19 13:00:31;;;;;;;5.07;2.88;;;;;;;;;;4916521;29;20024;-65
2024/01/19 13:02:58;;;;;;;2.10;1.80;;;;;;;;;;4916523;29;20478;-65
2024/01/19 13:05:27;;;;;;;2.40;2.20;;;;;;;;;;4916438;29;20036;-65
2024/01/19 13:07:58;;;;;;;7.65;3.38;;;;;;;;;;4915610;29;20032;-65
2024/01/19 13:10:24;;;;;;;5.18;4.50;;;;;;;;;;4915423;29;20502;-65
2024/01/19 13:12:49;;;;;;;6.43;5.43;;;;;;;;;;4915660;29;20064;-65
2024/01/19 13:15:19;;;;;;;8.30;5.20;;;;;;;;;;4916359;29;20478;-65
2024/01/19 13:17:44;;;;;;;5.63;5.10;;;;;;;;;;4916230;29;20393;-65
2024/01/19 13:20:23;;;;;;;6.78;5.40;;;;;;;;;;4916465;29;20047;-64
2024/01/19 13:22:49;;;;;;;6.05;4.95;;;;;;;;;;4916594;29;20028;-65
2024/01/19 13:25:15;;;;;;;6.00;5.10;;;;;;;;;;4916238;29;20371;-64
2024/01/19 13:27:40;;;;;;;5.50;5.00;;;;;;;;;;4916461;29;20031;-65
2024/01/19 13:30:06;;;;;;;6.25;5.35;;;;;;;;;;4916314;29;20028;-64
2024/01/19 13:32:34;;;;;;;5.70;5.20;;;;;;;;;;4916074;29;20032;-65
2024/01/19 13:35:00;;;;;;;5.80;4.97;;;;;;;;;;4916414;29;20208;-65
2024/01/19 13:37:25;;;;;;;5.97;5.00;;;;;;;;;;4916341;29;20181;-64
2024/01/19 13:39:52;;;;;;;5.88;5.10;;;;;;;;;;4916289;29;20035;-65
2024/01/19 13:42:20;;;;;;;5.63;4.90;;;;;;;;;;4916134;29;20024;-64
2024/01/19 13:44:46;;;;;;;5.18;4.57;;;;;;;;;;4916008;29;20048;-64
2024/01/19 13:47:11;;;;;;;6.22;5.00;;;;;;;;;;4919874;29;20442;-64
2024/01/19 13:49:37;;;;;;;5.45;4.78;;;;;;;;;;4919934;29;20059;-64
2024/01/19 13:52:03;;;;;;;4.93;4.43;;;;;;;;;;4919716;29;20119;-65
2024/01/19 13:54:29;;;;;;;6.05;4.80;;;;;;;;;;4919785;29;20079;-65
2024/01/19 13:56:54;;;;;;;5.15;4.65;;;;;;;;;;4919637;29;20024;-65
2024/01/19 13:59:20;;;;;;;5.15;4.63;;;;;;;;;;4919849;29;20056;-65
2024/01/19 14:01:46;;;;;;;5.07;4.57;;;;;;;;;;4919672;29;20031;-65
2024/01/19 14:04:12;;;;;;;5.68;4.80;;;;;;;;;;4919572;29;20024;-65
2024/01/19 14:06:40;;;;;;;6.22;4.68;;;;;;;;;;4902550;29;20028;-65
2024/01/19 14:09:06;;;;;;;5.70;4.50;;;;;;;;;;4919513;29;20060;-65
2024/01/19 14:11:32;;;;;;;4.90;4.40;;;;;;;;;;4919696;29;20059;-65
2024/01/19 14:13:58;;;;;;;5.47;4.95;;;;;;;;;;4919399;29;20445;-65
2024/01/19 14:16:23;;;;;;;5.50;4.72;;;;;;;;;;4902466;29;20028;-65
2024/01/19 14:18:49;;;;;;;5.22;4.68;;;;;;;;;;4919241;29;20043;-65
2024/01/19 14:21:16;;;;;;;5.60;4.72;;;;;;;;;;4919293;29;20029;-65
2024/01/19 14:23:42;;;;;;;4.78;4.30;;;;;;;;;;4919224;29;20028;-65
2024/01/19 14:26:08;;;;;;;5.10;4.60;;;;;;;;;;4919405;29;20393;-65
2024/01/19 14:28:33;;;;;;;5.18;4.30;;;;;;;;;;4919437;29;20028;-65
2024/01/19 14:30:59;;;;;;;5.63;4.65;;;;;;;;;;4919344;29;20028;-64
2024/01/19 14:33:25;;;;;;;5.63;4.30;;;;;;;;;;4919326;29;20024;-65
2024/01/19 14:35:51;;;;;;;4.70;4.30;;;;;;;;;;4919075;29;20080;-65
2024/01/19 14:38:16;;;;;;;5.13;4.30;;;;;;;;;;4919087;29;20040;-65
2024/01/19 14:40:42;;;;;;;4.80;4.30;;;;;;;;;;4918993;29;20112;-65